Time;durP1;ratioP1;P1;durP2;ratioP2;P2;SDS_P1;SDS_P2;PMS_P1;PMS_P2;Temp;Humidity;BMP_temperature;BMP_pressure;BME280_temperature;BME280_humidity;BME280_pressure;Samples;Min_cycle;Max_cycle;Signal;HPM_P1;HPM_P2
2022/04/03 00:01:29;;;;;;;;;;;;;;;;;;5094842;28;19916;-89
2022/04/03 00:03:54;;;;;;;;;;;;;;;;;;5093544;28;20322;-89
2022/04/03 00:06:19;;;;;;;;;;;;;;;;;;5093783;28;19958;-89
2022/04/03 00:08:44;;;;;;;;;;;;;;;;;;5094073;28;19969;-89
2022/04/03 00:11:09;;;;;;;;;;;;;;;;;;5095266;28;19912;-89
2022/04/03 00:13:36;;;;;;;;;;;;;;;;;;5094061;28;19961;-89
2022/04/03 00:16:01;;;;;;;;;;;;;;;;;;5094364;28;19908;-89
2022/04/03 00:18:27;;;;;;;;;;;;;;;;;;5093824;28;19912;-89
2022/04/03 00:20:52;;;;;;;;;;;;;;;;;;5093621;28;20313;-89
2022/04/03 00:23:17;;;;;;;;;;;;;;;;;;5093083;28;20286;-89
2022/04/03 00:25:42;;;;;;;;;;;;;;;;;;5093486;28;19904;-89
2022/04/03 00:28:07;;;;;;;;;;;;;;;;;;5093480;28;19966;-89
2022/04/03 00:30:32;;;;;;;;;;;;;;;;;;5093392;28;20005;-89
2022/04/03 00:32:57;;;;;;;;;;;;;;;;;;5093292;28;20351;-89
2022/04/03 00:35:23;;;;;;;;;;;;;;;;;;5092554;28;19938;-89
2022/04/03 00:37:48;;;;;;;;;;;;;;;;;;5093210;28;20002;-89
2022/04/03 00:40:13;;;;;;;;;;;;;;;;;;5093949;28;19935;-89
2022/04/03 00:42:38;;;;;;;;;;;;;;;;;;5093066;28;19951;-89
2022/04/03 00:45:03;;;;;;;;;;;;;;;;;;5092599;28;20364;-89
2022/04/03 00:47:28;;;;;;;;;;;;;;;;;;5092577;28;20012;-89
2022/04/03 00:49:53;;;;;;;;;;;;;;;;;;5094500;28;19915;-88
2022/04/03 00:52:20;;;;;;;;;;;;;;;;;;5092816;28;19933;-89
2022/04/03 00:54:46;;;;;;;;;;;;;;;;;;5093766;28;19908;-90
2022/04/03 00:57:12;;;;;;;;;;;;;;;;;;5092783;28;19908;-89
2022/04/03 00:59:37;;;;;;;;;;;;;;;;;;5093228;28;19957;-89
2022/04/03 01:02:02;;;;;;;;;;;;;;;;;;5092642;28;20039;-89
2022/04/03 01:04:27;;;;;;;;;;;;;;;;;;5092407;28;19928;-89
2022/04/03 01:06:52;;;;;;;;;;;;;;;;;;5092873;28;19908;-89
2022/04/03 01:09:17;;;;;;;;;;;;;;;;;;5092240;28;20382;-89
2022/04/03 01:11:42;;;;;;;;;;;;;;;;;;5092750;28;19943;-90
2022/04/03 01:14:08;;;;;;;;;;;;;;;;;;5092518;28;19987;-89
2022/04/03 01:16:33;;;;;;;;;;;;;;;;;;5092811;28;19911;-89
2022/04/03 01:18:58;;;;;;;;;;;;;;;;;;5092669;28;20320;-89
2022/04/03 01:21:23;;;;;;;;;;;;;;;;;;5092334;28;20339;-89
2022/04/03 01:23:49;;;;;;;;;;;;;;;;;;5091928;28;20007;-89
2022/04/03 01:26:15;;;;;;;;;;;;;;;;;;5092486;28;19939;-89
2022/04/03 01:28:40;;;;;;;;;;;;;;;;;;5092016;28;19986;-89
2022/04/03 01:31:06;;;;;;;;;;;;;;;;;;5091986;28;20355;-89
2022/04/03 01:33:31;;;;;;;;;;;;;;;;;;5092115;28;19919;-89
2022/04/03 01:35:56;;;;;;;;;;;;;;;;;;5092036;28;19912;-89
2022/04/03 01:38:21;;;;;;;;;;;;;;;;;;5092175;28;19908;-89
2022/04/03 01:40:46;;;;;;;;;;;;;;;;;;5092066;28;20386;-89
2022/04/03 01:43:11;;;;;;;;;;;;;;;;;;5091740;28;19916;-89
2022/04/03 01:45:36;;;;;;;;;;;;;;;;;;5091752;28;19908;-89
2022/04/03 01:48:02;;;;;;;;;;;;;;;;;;5091866;28;19920;-88
2022/04/03 01:50:27;;;;;;;;;;;;;;;;;;5091470;28;19915;-88
2022/04/03 01:52:52;;;;;;;;;;;;;;;;;;5091762;28;19930;-89
2022/04/03 01:55:17;;;;;;;;;;;;;;;;;;5091275;28;19916;-89
2022/04/03 01:57:42;;;;;;;;;;;;;;;;;;5091810;28;19919;-89
2022/04/03 02:00:07;;;;;;;;;;;;;;;;;;5091590;28;19912;-89
2022/04/03 02:02:32;;;;;;;;;;;;;;;;;;5091779;28;20450;-89
2022/04/03 02:04:58;;;;;;;;;;;;;;;;;;5092347;28;19915;-89
2022/04/03 02:07:23;;;;;;;;;;;;;;;;;;5091639;28;20362;-89
2022/04/03 02:09:48;;;;;;;;;;;;;;;;;;5091686;28;19914;-88
2022/04/03 02:12:13;;;;;;;;;;;;;;;;;;5091626;28;20015;-88
2022/04/03 02:14:38;;;;;;;;;;;;;;;;;;5091455;28;19908;-88
2022/04/03 02:17:03;;;;;;;;;;;;;;;;;;5091341;28;20007;-88
2022/04/03 02:19:29;;;;;;;;;;;;;;;;;;5091697;28;19908;-88
2022/04/03 02:21:54;;;;;;;;;;;;;;;;;;5092563;28;19912;-88
2022/04/03 02:24:19;;;;;;;;;;;;;;;;;;5090823;28;20347;-88
2022/04/03 02:26:44;;;;;;;;;;;;;;;;;;5091508;28;19951;-88
2022/04/03 02:29:09;;;;;;;;;;;;;;;;;;5091134;28;19998;-88
2022/04/03 02:31:34;;;;;;;;;;;;;;;;;;5092562;28;19951;-88
2022/04/03 02:33:59;;;;;;;;;;;;;;;;;;5092454;28;19912;-88
2022/04/03 02:36:24;;;;;;;;;;;;;;;;;;5091472;28;19908;-88
2022/04/03 02:38:49;;;;;;;;;;;;;;;;;;5091686;28;19908;-88
2022/04/03 02:41:15;;;;;;;;;;;;;;;;;;5091448;28;19908;-88
2022/04/03 02:43:40;;;;;;;;;;;;;;;;;;5066205;28;20405;-88
2022/04/03 02:46:05;;;;;;;;;;;;;;;;;;5053931;28;20280;-88
2022/04/03 02:48:30;;;;;;;;;;;;;;;;;;5053881;28;19932;-87
2022/04/03 02:50:55;;;;;;;;;;;;;;;;;;5054050;28;19959;-88
2022/04/03 02:53:20;;;;;;;;;;;;;;;;;;5053665;28;19912;-88
2022/04/03 02:55:45;;;;;;;;;;;;;;;;;;5071743;28;19912;-88
2022/04/03 02:58:11;;;;;;;;;;;;;;;;;;5054505;28;19908;-88
2022/04/03 03:00:37;;;;;;;;;;;;;;;;;;5054208;28;20249;-88
2022/04/03 03:03:04;;;;;;;;;;;;;;;;;;5056083;28;19913;-87
2022/04/03 03:05:29;;;;;;;;;;;;;;;;;;5057713;28;19919;-88
2022/04/03 03:07:55;;;;;;;;;;;;;;;;;;5075744;28;19912;-88
2022/04/03 03:10:21;;;;;;;;;;;;;;;;;;5057796;28;19909;-88
2022/04/03 03:12:46;;;;;;;;;;;;;;;;;;5057797;28;19912;-88
2022/04/03 03:15:12;;;;;;;;;;;;;;;;;;5057551;28;19954;-88
2022/04/03 03:17:37;;;;;;;;;;;;;;;;;;5057692;28;20074;-87
2022/04/03 03:20:02;;;;;;;;;;;;;;;;;;5057398;28;20438;-88
2022/04/03 03:22:27;;;;;;;;;;;;;;;;;;5057617;28;19920;-88
2022/04/03 03:24:52;;;;;;;;;;;;;;;;;;5057081;28;20342;-88
2022/04/03 03:27:18;;;;;;;;;;;;;;;;;;5075482;28;19954;-87
2022/04/03 03:29:43;;;;;;;;;;;;;;;;;;5075576;28;19908;-88
2022/04/03 03:32:08;;;;;;;;;;;;;;;;;;5057752;28;19908;-87
2022/04/03 03:34:34;;;;;;;;;;;;;;;;;;5056735;28;19966;-88
2022/04/03 03:36:59;;;;;;;;;;;;;;;;;;5057473;28;19962;-87
2022/04/03 03:39:26;;;;;;;;;;;;;;;;;;5057422;28;19944;-87
2022/04/03 03:41:52;;;;;;;;;;;;;;;;;;5075047;28;19908;-87
2022/04/03 03:44:17;;;;;;;;;;;;;;;;;;5056468;28;19909;-87
2022/04/03 03:46:42;;;;;;;;;;;;;;;;;;5056769;28;19913;-87
2022/04/03 03:49:07;;;;;;;;;;;;;;;;;;5057022;28;19964;-87
2022/04/03 03:51:32;;;;;;;;;;;;;;;;;;5056817;28;20010;-87
2022/04/03 03:53:57;;;;;;;;;;;;;;;;;;5056354;28;20343;-87
2022/04/03 03:56:23;;;;;;;;;;;;;;;;;;5056607;28;20030;-86
2022/04/03 03:58:48;;;;;;;;;;;;;;;;;;5056498;28;19909;-87
2022/04/03 04:01:13;;;;;;;;;;;;;;;;;;5056107;28;19908;-87
2022/04/03 04:03:38;;;;;;;;;;;;;;;;;;5056270;28;19956;-87
2022/04/03 04:06:03;;;;;;;;;;;;;;;;;;5056322;28;20029;-86
2022/04/03 04:08:28;;;;;;;;;;;;;;;;;;5056067;28;19922;-87
2022/04/03 04:10:53;;;;;;;;;;;;;;;;;;5056176;28;19908;-87
2022/04/03 04:13:18;;;;;;;;;;;;;;;;;;5055582;28;20011;-87
2022/04/03 04:15:44;;;;;;;;;;;;;;;;;;5056054;28;19998;-87
2022/04/03 04:18:09;;;;;;;;;;;;;;;;;;5056381;28;20011;-87
2022/04/03 04:20:34;;;;;;;;;;;;;;;;;;5056060;28;20268;-87
2022/04/03 04:22:59;;;;;;;;;;;;;;;;;;5055740;28;19912;-87
2022/04/03 04:25:24;;;;;;;;;;;;;;;;;;5056329;28;19909;-87
2022/04/03 04:27:49;;;;;;;;;;;;;;;;;;5056215;28;19913;-87
2022/04/03 04:30:14;;;;;;;;;;;;;;;;;;5074196;28;19913;-87
2022/04/03 04:32:39;;;;;;;;;;;;;;;;;;5056507;28;19905;-87
2022/04/03 04:35:05;;;;;;;;;;;;;;;;;;5073563;28;19969;-87
2022/04/03 04:37:30;;;;;;;;;;;;;;;;;;5055986;28;20267;-87
2022/04/03 04:39:55;;;;;;;;;;;;;;;;;;5056040;28;19905;-87
2022/04/03 04:42:20;;;;;;;;;;;;;;;;;;5056038;28;19909;-87
2022/04/03 04:44:45;;;;;;;;;;;;;;;;;;5055617;28;20007;-87
2022/04/03 04:47:10;;;;;;;;;;;;;;;;;;5056099;28;20015;-87
2022/04/03 04:49:35;;;;;;;;;;;;;;;;;;5055946;28;20279;-87
2022/04/03 04:52:00;;;;;;;;;;;;;;;;;;5055857;28;19915;-87
2022/04/03 04:54:26;;;;;;;;;;;;;;;;;;5055172;28;19908;-87
2022/04/03 04:56:51;;;;;;;;;;;;;;;;;;5055868;28;19908;-87
2022/04/03 04:59:17;;;;;;;;;;;;;;;;;;5055695;28;19913;-87
2022/04/03 05:01:42;;;;;;;;;;;;;;;;;;5055725;28;19908;-87
2022/04/03 05:04:07;;;;;;;;;;;;;;;;;;5054762;28;19919;-87
2022/04/03 05:06:32;;;;;;;;;;;;;;;;;;5055144;28;19916;-87
2022/04/03 05:08:57;;;;;;;;;;;;;;;;;;5055204;28;19916;-87
2022/04/03 05:11:22;;;;;;;;;;;;;;;;;;5055148;28;19919;-87
2022/04/03 05:13:48;;;;;;;;;;;;;;;;;;5055114;28;19915;-87
2022/04/03 05:16:13;;;;;;;;;;;;;;;;;;5073094;28;19908;-87
2022/04/03 05:18:38;;;;;;;;;;;;;;;;;;5055078;28;19908;-87
2022/04/03 05:21:04;;;;;;;;;;;;;;;;;;5055113;28;19912;-87
2022/04/03 05:23:29;;;;;;;;;;;;;;;;;;5072842;28;19912;-87
2022/04/03 05:25:54;;;;;;;;;;;;;;;;;;5055230;28;19915;-87
2022/04/03 05:28:21;;;;;;;;;;;;;;;;;;5054708;28;19912;-87
2022/04/03 05:30:46;;;;;;;;;;;;;;;;;;5054736;28;20006;-87
2022/04/03 05:33:11;;;;;;;;;;;;;;;;;;5054727;28;20006;-87
2022/04/03 05:35:36;;;;;;;;;;;;;;;;;;5072984;28;20347;-87
2022/04/03 05:38:01;;;;;;;;;;;;;;;;;;5054917;28;19920;-87
2022/04/03 05:40:26;;;;;;;;;;;;;;;;;;5055273;28;20379;-87
2022/04/03 05:42:51;;;;;;;;;;;;;;;;;;5054548;28;20406;-87
2022/04/03 05:45:18;;;;;;;;;;;;;;;;;;5072315;28;19909;-87
2022/04/03 05:47:43;;;;;;;;;;;;;;;;;;5072642;28;20260;-87
2022/04/03 05:50:08;;;;;;;;;;;;;;;;;;5055085;28;20007;-87
2022/04/03 05:52:33;;;;;;;;;;;;;;;;;;5054533;28;19912;-87
2022/04/03 05:54:58;;;;;;;;;;;;;;;;;;5072074;28;19967;-87
2022/04/03 05:57:23;;;;;;;;;;;;;;;;;;5054496;28;19909;-87
2022/04/03 05:59:48;;;;;;;;;;;;;;;;;;5054957;28;19904;-87
2022/04/03 06:02:13;;;;;;;;;;;;;;;;;;5072552;28;19955;-87
2022/04/03 06:04:38;;;;;;;;;;;;;;;;;;5072100;28;19967;-87
2022/04/03 06:07:04;;;;;;;;;;;;;;;;;;5058600;28;20337;-87
2022/04/03 06:09:32;;;;;;;;;;;;;;;;;;5083175;28;20019;-87
2022/04/03 06:12:03;;;;;;;;;;;;;;;;;;5084502;28;20382;-87
2022/04/03 06:14:29;;;;;;;;;;;;;;;;;;5088773;28;20002;-89
2022/04/03 06:16:54;;;;;;;;;;;;;;;;;;5074160;28;19951;-89
2022/04/03 06:19:19;;;;;;;;;;;;;;;;;;5073949;28;19908;-89
2022/04/03 06:21:44;;;;;;;;;;;;;;;;;;5092037;28;19912;-88
2022/04/03 06:24:09;;;;;;;;;;;;;;;;;;5073915;28;19966;-89
2022/04/03 06:26:35;;;;;;;;;;;;;;;;;;5073761;28;20049;-89
2022/04/03 06:29:00;;;;;;;;;;;;;;;;;;5073470;28;19967;-89
2022/04/03 06:31:25;;;;;;;;;;;;;;;;;;5087780;28;19913;-88
2022/04/03 06:33:50;;;;;;;;;;;;;;;;;;5081694;28;19924;-89
2022/04/03 06:36:15;;;;;;;;;;;;;;;;;;5091420;28;20247;-89
2022/04/03 06:38:41;;;;;;;;;;;;;;;;;;5077660;28;20310;-89
2022/04/03 06:41:08;;;;;;;;;;;;;;;;;;5077531;28;19916;-89
2022/04/03 06:43:33;;;;;;;;;;;;;;;;;;5077372;28;19913;-84
2022/04/03 06:45:59;;;;;;;;;;;;;;;;;;5077395;28;19919;-86
2022/04/03 06:48:24;;;;;;;;;;;;;;;;;;5077445;28;20314;-86
2022/04/03 06:50:49;;;;;;;;;;;;;;;;;;5077037;28;19966;-86
2022/04/03 06:53:14;;;;;;;;;;;;;;;;;;5094853;28;19912;-86
2022/04/03 06:55:39;;;;;;;;;;;;;;;;;;5076805;28;19912;-85
2022/04/03 06:58:04;;;;;;;;;;;;;;;;;;5076884;28;19935;-85
2022/04/03 07:00:29;;;;;;;;;;;;;;;;;;5077159;28;20298;-85
2022/04/03 07:02:54;;;;;;;;;;;;;;;;;;5076145;28;19916;-85
2022/04/03 07:05:20;;;;;;;;;;;;;;;;;;5095260;28;19908;-86
2022/04/03 07:07:45;;;;;;;;;;;;;;;;;;5076828;28;19952;-87
2022/04/03 07:10:10;;;;;;;;;;;;;;;;;;5076812;28;19944;-87
2022/04/03 07:12:35;;;;;;;;;;;;;;;;;;5078514;28;20436;-87
2022/04/03 07:15:00;;;;;;;;;;;;;;;;;;5096895;28;19908;-87
2022/04/03 07:17:26;;;;;;;;;;;;;;;;;;5075281;28;19912;-87
2022/04/03 07:19:51;;;;;;;;;;;;;;;;;;5078579;28;19908;-87
2022/04/03 07:22:16;;;;;;;;;;;;;;;;;;5095529;28;19920;-87
2022/04/03 07:24:41;;;;;;;;;;;;;;;;;;5077615;28;19999;-90
2022/04/03 07:27:07;;;;;;;;;;;;;;;;;;5078644;28;19912;-90
2022/04/03 07:29:33;;;;;;;;;;;;;;;;;;5096965;28;19945;-88
2022/04/03 07:31:58;;;;;;;;;;;;;;;;;;5094874;28;19919;-89
2022/04/03 07:34:24;;;;;;;;;;;;;;;;;;5088120;28;19912;-88
2022/04/03 07:36:49;;;;;;;;;;;;;;;;;;5074394;28;20356;-89
2022/04/03 07:39:15;;;;;;;;;;;;;;;;;;5071140;28;19991;-89
2022/04/03 07:41:40;;;;;;;;;;;;;;;;;;5078643;28;20023;-88
2022/04/03 07:44:05;;;;;;;;;;;;;;;;;;5073000;28;19920;-88
2022/04/03 07:46:30;;;;;;;;;;;;;;;;;;5110315;28;19912;-89
2022/04/03 07:48:55;;;;;;;;;;;;;;;;;;5086753;28;19916;-89
2022/04/03 07:51:21;;;;;;;;;;;;;;;;;;5073883;28;19912;-89
2022/04/03 07:53:46;;;;;;;;;;;;;;;;;;5078190;28;19919;-89
2022/04/03 07:56:11;;;;;;;;;;;;;;;;;;5084824;28;19942;-89
2022/04/03 07:58:36;;;;;;;;;;;;;;;;;;5092272;28;19917;-90
2022/04/03 08:01:01;;;;;;;;;;;;;;;;;;5091604;28;19909;-89
2022/04/03 08:03:27;;;;;;;;;;;;;;;;;;5091731;28;19916;-90
2022/04/03 08:05:52;;;;;;;;;;;;;;;;;;5075987;28;19909;-89
2022/04/03 08:08:17;;;;;;;;;;;;;;;;;;5076007;28;19917;-90
2022/04/03 08:10:42;;;;;;;;;;;;;;;;;;5080371;28;19919;-91
2022/04/03 08:13:08;;;;;;;;;;;;;;;;;;5110092;28;19908;-90
2022/04/03 08:15:33;;;;;;;;;;;;;;;;;;5098344;28;19943;-90
2022/04/03 08:17:58;;;;;;;;;;;;;;;;;;5097137;28;20452;-90
2022/04/03 08:20:23;;;;;;;;;;;;;;;;;;5096536;28;19915;-90
2022/04/03 08:22:49;;;;;;;;;;;;;;;;;;5066341;28;19919;-90
2022/04/03 08:25:15;;;;;;;;;;;;;;;;;;5074596;28;19923;-91
2022/04/03 08:27:42;;;;;;;;;;;;;;;;;;5067491;28;19920;-91
2022/04/03 08:30:07;;;;;;;;;;;;;;;;;;5066586;28;19923;-90
2022/04/03 08:32:32;;;;;;;;;;;;;;;;;;5077875;28;19995;-91
2022/04/03 08:34:58;;;;;;;;;;;;;;;;;;5057828;28;20015;-90
2022/04/03 08:37:24;;;;;;;;;;;;;;;;;;5078444;28;19969;-91
2022/04/03 08:39:49;;;;;;;;;;;;;;;;;;5076138;28;20028;-91
2022/04/03 08:42:14;;;;;;;;;;;;;;;;;;5077586;28;20245;-90
2022/04/03 08:44:39;;;;;;;;;;;;;;;;;;5074287;28;19915;-90
2022/04/03 08:47:06;;;;;;;;;;;;;;;;;;5095400;28;19912;-90
2022/04/03 08:49:31;;;;;;;;;;;;;;;;;;5089490;28;19977;-91
2022/04/03 08:51:57;;;;;;;;;;;;;;;;;;5083088;28;20002;-90
2022/04/03 08:54:22;;;;;;;;;;;;;;;;;;5076542;28;19954;-90
2022/04/03 08:56:47;;;;;;;;;;;;;;;;;;5075588;28;19954;-91
2022/04/03 08:59:12;;;;;;;;;;;;;;;;;;5074501;28;19950;-91
2022/04/03 09:01:37;;;;;;;;;;;;;;;;;;5075319;28;19999;-91
2022/04/03 09:04:02;;;;;;;;;;;;;;;;;;5075337;28;20057;-90
2022/04/03 09:06:27;;;;;;;;;;;;;;;;;;5074521;28;19912;-91
2022/04/03 09:08:52;;;;;;;;;;;;;;;;;;5077167;28;20367;-91
2022/04/03 09:11:19;;;;;;;;;;;;;;;;;;5077013;28;20286;-90
2022/04/03 09:13:44;;;;;;;;;;;;;;;;;;5077227;28;20062;-91
2022/04/03 09:16:09;;;;;;;;;;;;;;;;;;5076775;28;19975;-91
2022/04/03 09:18:34;;;;;;;;;;;;;;;;;;5090616;28;19912;-90
2022/04/03 09:20:59;;;;;;;;;;;;;;;;;;5072309;28;19916;-90
2022/04/03 09:23:26;;;;;;;;;;;;;;;;;;5090768;28;20382;-90
2022/04/03 09:25:51;;;;;;;;;;;;;;;;;;5069878;28;19908;-91
2022/04/03 09:28:17;;;;;;;;;;;;;;;;;;5085989;28;19927;-90
2022/04/03 09:30:43;;;;;;;;;;;;;;;;;;5075414;28;19942;-90
2022/04/03 09:33:08;;;;;;;;;;;;;;;;;;5059046;28;20339;-89
2022/04/03 09:35:33;;;;;;;;;;;;;;;;;;5059185;28;19909;-89
2022/04/03 09:37:58;;;;;;;;;;;;;;;;;;5061581;28;20025;-90
2022/04/03 09:40:23;;;;;;;;;;;;;;;;;;5101200;28;20390;-90
2022/04/03 09:42:48;;;;;;;;;;;;;;;;;;5093591;28;19923;-90
2022/04/03 09:45:14;;;;;;;;;;;;;;;;;;5076480;28;19919;-90
2022/04/03 09:47:39;;;;;;;;;;;;;;;;;;5076014;28;20018;-89
2022/04/03 09:50:04;;;;;;;;;;;;;;;;;;5112352;28;20003;-90
2022/04/03 09:52:31;;;;;;;;;;;;;;;;;;5079439;28;21988;-90
2022/04/03 09:54:56;;;;;;;;;;;;;;;;;;5093888;28;19908;-90
2022/04/03 09:57:23;;;;;;;;;;;;;;;;;;5065078;28;20360;-89
2022/04/03 09:59:48;;;;;;;;;;;;;;;;;;5086718;28;19912;-90
2022/04/03 10:02:14;;;;;;;;;;;;;;;;;;5074567;28;20003;-89
2022/04/03 10:04:39;;;;;;;;;;;;;;;;;;5075081;28;20002;-89
2022/04/03 10:07:04;;;;;;;;;;;;;;;;;;5074866;28;19912;-89
2022/04/03 10:09:29;;;;;;;;;;;;;;;;;;5081983;28;19915;-90
2022/04/03 10:11:56;;;;;;;;;;;;;;;;;;5098006;28;20003;-89
2022/04/03 10:14:21;;;;;;;;;;;;;;;;;;5095206;28;19916;-90
2022/04/03 10:16:46;;;;;;;;;;;;;;;;;;5057566;28;19969;-90
2022/04/03 10:19:11;;;;;;;;;;;;;;;;;;5086383;28;19912;-87
2022/04/03 10:21:39;;;;;;;;;;;;;;;;;;5081346;28;19916;-90
2022/04/03 10:24:04;;;;;;;;;;;;;;;;;;5097150;28;20244;-90
2022/04/03 10:26:30;;;;;;;;;;;;;;;;;;5075930;28;20291;-90
2022/04/03 10:28:55;;;;;;;;;;;;;;;;;;5075816;28;19970;-90
2022/04/03 10:31:20;;;;;;;;;;;;;;;;;;5094323;28;19989;-89
2022/04/03 10:33:48;;;;;;;;;;;;;;;;;;5092614;28;19912;-89
2022/04/03 10:36:13;;;;;;;;;;;;;;;;;;5075374;28;19958;-90
2022/04/03 10:38:38;;;;;;;;;;;;;;;;;;5075271;28;19908;-89
2022/04/03 10:41:05;;;;;;;;;;;;;;;;;;5079686;28;19916;-90
2022/04/03 10:43:30;;;;;;;;;;;;;;;;;;5076433;28;19915;-89
2022/04/03 10:45:56;;;;;;;;;;;;;;;;;;5066725;28;19916;-90
2022/04/03 10:48:21;;;;;;;;;;;;;;;;;;5072361;28;19938;-90
2022/04/03 10:50:46;;;;;;;;;;;;;;;;;;5087469;28;19919;-91
2022/04/03 10:53:11;;;;;;;;;;;;;;;;;;5096824;28;19997;-91
2022/04/03 10:55:37;;;;;;;;;;;;;;;;;;5093545;28;19947;-88
2022/04/03 10:58:03;;;;;;;;;;;;;;;;;;5077256;28;19912;-90
2022/04/03 11:00:29;;;;;;;;;;;;;;;;;;5074525;28;19912;-89
2022/04/03 11:02:54;;;;;;;;;;;;;;;;;;5071253;28;19912;-89
2022/04/03 11:05:19;;;;;;;;;;;;;;;;;;5090922;28;19934;-90
2022/04/03 11:07:44;;;;;;;;;;;;;;;;;;5081522;28;20377;-90
2022/04/03 11:10:09;;;;;;;;;;;;;;;;;;5072198;28;20287;-90
2022/04/03 11:12:34;;;;;;;;;;;;;;;;;;5102759;28;19919;-89
2022/04/03 11:15:00;;;;;;;;;;;;;;;;;;5075085;28;20011;-89
2022/04/03 11:17:26;;;;;;;;;;;;;;;;;;5093412;28;19908;-89
2022/04/03 11:19:53;;;;;;;;;;;;;;;;;;5084141;28;20287;-90
2022/04/03 11:22:18;;;;;;;;;;;;;;;;;;5108432;28;19918;-89
2022/04/03 11:24:44;;;;;;;;;;;;;;;;;;5094042;28;19912;-89
2022/04/03 11:27:09;;;;;;;;;;;;;;;;;;5078822;28;20359;-89
2022/04/03 11:29:34;;;;;;;;;;;;;;;;;;5100674;28;19916;-89
2022/04/03 11:31:59;;;;;;;;;;;;;;;;;;5094226;28;20072;-89
2022/04/03 11:34:24;;;;;;;;;;;;;;;;;;5078694;28;19957;-89
2022/04/03 11:36:49;;;;;;;;;;;;;;;;;;5075308;28;19961;-89
2022/04/03 11:39:15;;;;;;;;;;;;;;;;;;5075328;28;19926;-91
2022/04/03 11:41:40;;;;;;;;;;;;;;;;;;5094447;28;20007;-91
2022/04/03 11:44:05;;;;;;;;;;;;;;;;;;5109082;28;20260;-92
2022/04/03 11:46:30;;;;;;;;;;;;;;;;;;5084103;28;19912;-89
2022/04/03 11:48:56;;;;;;;;;;;;;;;;;;5077166;28;19923;-89
2022/04/03 11:51:21;;;;;;;;;;;;;;;;;;5087483;28;20275;-89
2022/04/03 11:53:46;;;;;;;;;;;;;;;;;;5090190;28;19912;-90
2022/04/03 11:56:11;;;;;;;;;;;;;;;;;;5087503;28;20283;-90
2022/04/03 11:58:36;;;;;;;;;;;;;;;;;;5082167;28;19916;-89
2022/04/03 12:01:01;;;;;;;;;;;;;;;;;;5081283;28;19916;-88
2022/04/03 12:03:27;;;;;;;;;;;;;;;;;;5079703;28;20007;-88
2022/04/03 12:05:52;;;;;;;;;;;;;;;;;;5089481;28;19911;-89
2022/04/03 12:08:17;;;;;;;;;;;;;;;;;;5083218;28;19920;-88
2022/04/03 12:10:42;;;;;;;;;;;;;;;;;;5082104;28;19930;-89
2022/04/03 12:13:08;;;;;;;;;;;;;;;;;;5083980;28;20416;-89
2022/04/03 12:15:33;;;;;;;;;;;;;;;;;;5099167;28;19916;-88
2022/04/03 12:17:58;;;;;;;;;;;;;;;;;;5083593;28;20378;-88
2022/04/03 12:20:23;;;;;;;;;;;;;;;;;;5079221;28;19927;-89
2022/04/03 12:22:48;;;;;;;;;;;;;;;;;;5077125;28;19974;-89
2022/04/03 12:25:13;;;;;;;;;;;;;;;;;;5075439;28;19919;-89
2022/04/03 12:27:38;;;;;;;;;;;;;;;;;;5067581;28;19920;-89
2022/04/03 12:30:03;;;;;;;;;;;;;;;;;;5080845;28;19931;-87
2022/04/03 12:32:28;;;;;;;;;;;;;;;;;;5069444;28;19947;-89
2022/04/03 12:34:54;;;;;;;;;;;;;;;;;;5073514;28;19912;-89
2022/04/03 12:37:22;;;;;;;;;;;;;;;;;;5057628;28;20363;-89
2022/04/03 12:39:48;;;;;;;;;;;;;;;;;;5072484;28;19989;-89
2022/04/03 12:42:13;;;;;;;;;;;;;;;;;;5077230;28;19966;-89
2022/04/03 12:44:38;;;;;;;;;;;;;;;;;;5077814;28;19961;-89
2022/04/03 12:47:03;;;;;;;;;;;;;;;;;;5087071;28;19904;-88
2022/04/03 12:49:28;;;;;;;;;;;;;;;;;;5085712;28;19911;-88
2022/04/03 12:51:53;;;;;;;;;;;;;;;;;;5066864;28;20271;-88
2022/04/03 12:54:19;;;;;;;;;;;;;;;;;;5078395;28;19912;-90
2022/04/03 12:59:29;;;;;;;;;;;;;;;;;;5093891;28;20443;-90
2022/04/03 13:01:54;;;;;;;;;;;;;;;;;;5084990;28;20010;-88
2022/04/03 13:04:19;;;;;;;;;;;;;;;;;;5068676;28;19994;-89
2022/04/03 13:06:44;;;;;;;;;;;;;;;;;;5070995;28;19908;-88
2022/04/03 13:09:09;;;;;;;;;;;;;;;;;;5093676;28;20010;-87
2022/04/03 13:11:34;;;;;;;;;;;;;;;;;;5070670;28;19916;-88
2022/04/03 13:13:59;;;;;;;;;;;;;;;;;;5083259;28;20268;-88
2022/04/03 13:16:24;;;;;;;;;;;;;;;;;;5074149;28;19913;-87
2022/04/03 13:18:49;;;;;;;;;;;;;;;;;;5103590;28;20317;-88
2022/04/03 13:21:15;;;;;;;;;;;;;;;;;;5057943;28;19913;-89
2022/04/03 13:23:40;;;;;;;;;;;;;;;;;;5083503;28;19912;-88
2022/04/03 13:26:05;;;;;;;;;;;;;;;;;;5068491;28;19916;-90
2022/04/03 13:28:30;;;;;;;;;;;;;;;;;;5091240;28;20288;-90
2022/04/03 13:30:55;;;;;;;;;;;;;;;;;;5086644;28;19915;-88
2022/04/03 13:33:20;;;;;;;;;;;;;;;;;;5088079;28;19912;-89
2022/04/03 13:35:45;;;;;;;;;;;;;;;;;;5070459;28;20314;-88
2022/04/03 13:38:10;;;;;;;;;;;;;;;;;;5076198;28;19915;-88
2022/04/03 13:40:36;;;;;;;;;;;;;;;;;;5075547;28;20451;-88
2022/04/03 13:43:01;;;;;;;;;;;;;;;;;;5076390;28;19908;-89
2022/04/03 13:45:56;;;;;;;;;;;;;;;;;;5061394;28;19920;-85
2022/04/03 13:48:11;;;;;;;;;;;;;;;;;;5073401;28;19916;-83
2022/04/03 13:50:36;;;;;;;;;;;;;;;;;;5092481;28;19916;-86
2022/04/03 13:53:01;;;;;;;;;;;;;;;;;;5072577;28;20253;-85
2022/04/03 13:55:26;;;;;;;;;;;;;;;;;;5055871;28;19912;-87
2022/04/03 13:57:52;;;;;;;;;;;;;;;;;;5057160;28;19916;-87
2022/04/03 14:00:17;;;;;;;;;;;;;;;;;;5069745;28;19912;-87
2022/04/03 14:02:43;;;;;;;;;;;;;;;;;;5094506;28;19913;-87
2022/04/03 14:05:08;;;;;;;;;;;;;;;;;;5063215;28;19927;-87
2022/04/03 14:07:33;;;;;;;;;;;;;;;;;;5083958;28;19912;-87
2022/04/03 14:09:58;;;;;;;;;;;;;;;;;;5071914;28;20285;-88
2022/04/03 14:12:23;;;;;;;;;;;;;;;;;;5089086;28;19934;-87
2022/04/03 14:14:48;;;;;;;;;;;;;;;;;;5093411;28;19911;-87
2022/04/03 14:17:13;;;;;;;;;;;;;;;;;;5086413;28;19916;-87
2022/04/03 14:19:38;;;;;;;;;;;;;;;;;;5082481;28;19957;-87
2022/04/03 14:22:06;;;;;;;;;;;;;;;;;;5079510;28;19912;-87
2022/04/03 14:24:32;;;;;;;;;;;;;;;;;;5081659;28;20348;-87
2022/04/03 14:26:57;;;;;;;;;;;;;;;;;;5078452;28;19919;-87
2022/04/03 14:29:24;;;;;;;;;;;;;;;;;;5075414;28;20371;-87
2022/04/03 14:31:49;;;;;;;;;;;;;;;;;;5084495;28;19909;-87
2022/04/03 14:34:15;;;;;;;;;;;;;;;;;;5073897;28;19957;-87
2022/04/03 14:36:40;;;;;;;;;;;;;;;;;;5084823;28;19957;-87
2022/04/03 14:39:05;;;;;;;;;;;;;;;;;;5079842;28;19961;-87
2022/04/03 14:41:34;;;;;;;;;;;;;;;;;;5084896;28;19962;-86
2022/04/03 14:43:59;;;;;;;;;;;;;;;;;;5096576;28;19911;-87
2022/04/03 14:46:24;;;;;;;;;;;;;;;;;;5071916;28;19922;-87
2022/04/03 14:48:49;;;;;;;;;;;;;;;;;;5075267;28;19916;-87
2022/04/03 14:51:15;;;;;;;;;;;;;;;;;;5081294;28;20363;-87
2022/04/03 14:53:40;;;;;;;;;;;;;;;;;;5066528;28;20687;-87
2022/04/03 14:56:05;;;;;;;;;;;;;;;;;;5070386;28;20390;-87
2022/04/03 14:58:30;;;;;;;;;;;;;;;;;;5074678;28;19908;-87
2022/04/03 15:00:55;;;;;;;;;;;;;;;;;;5080277;28;19916;-87
2022/04/03 15:03:21;;;;;;;;;;;;;;;;;;5094256;28;19965;-86
2022/04/03 15:05:46;;;;;;;;;;;;;;;;;;5078669;28;19909;-87
2022/04/03 15:08:11;;;;;;;;;;;;;;;;;;5078805;28;19919;-86
2022/04/03 15:10:36;;;;;;;;;;;;;;;;;;5088284;28;19919;-87
2022/04/03 15:13:01;;;;;;;;;;;;;;;;;;5089232;28;19916;-87
2022/04/03 15:15:26;;;;;;;;;;;;;;;;;;5078631;28;19920;-86
2022/04/03 15:17:52;;;;;;;;;;;;;;;;;;5097080;28;19912;-87
2022/04/03 15:20:17;;;;;;;;;;;;;;;;;;5088441;28;20286;-88
2022/04/03 15:22:44;;;;;;;;;;;;;;;;;;5078420;28;19912;-87
2022/04/03 15:25:09;;;;;;;;;;;;;;;;;;5078281;28;19919;-87
2022/04/03 15:27:34;;;;;;;;;;;;;;;;;;5077461;28;19908;-87
2022/04/03 15:29:59;;;;;;;;;;;;;;;;;;5077235;28;19916;-87
2022/04/03 15:32:25;;;;;;;;;;;;;;;;;;5086576;28;19908;-87
2022/04/03 15:34:50;;;;;;;;;;;;;;;;;;5082407;28;20143;-87
2022/04/03 15:37:18;;;;;;;;;;;;;;;;;;5076989;28;19916;-87
2022/04/03 15:39:44;;;;;;;;;;;;;;;;;;5077170;28;19951;-87
2022/04/03 15:42:09;;;;;;;;;;;;;;;;;;5096387;28;20004;-87
2022/04/03 15:44:34;;;;;;;;;;;;;;;;;;5077467;28;19955;-87
2022/04/03 15:46:59;;;;;;;;;;;;;;;;;;5076830;28;19915;-87
2022/04/03 15:49:24;;;;;;;;;;;;;;;;;;5092365;28;20319;-87
2022/04/03 15:51:50;;;;;;;;;;;;;;;;;;5078768;28;19908;-87
2022/04/03 15:54:15;;;;;;;;;;;;;;;;;;5077311;28;20364;-88
2022/04/03 15:56:40;;;;;;;;;;;;;;;;;;5076784;28;19915;-88
2022/04/03 15:59:05;;;;;;;;;;;;;;;;;;5079838;28;19982;-92
2022/04/03 16:01:30;;;;;;;;;;;;;;;;;;5089185;28;19919;-88
2022/04/03 16:03:55;;;;;;;;;;;;;;;;;;5103743;28;19911;-91
2022/04/03 16:06:20;;;;;;;;;;;;;;;;;;5096944;28;20014;-91
2022/04/03 16:08:46;;;;;;;;;;;;;;;;;;5098491;28;20060;-91
2022/04/03 16:11:13;;;;;;;;;;;;;;;;;;5097551;28;19919;-89
2022/04/03 16:13:38;;;;;;;;;;;;;;;;;;5098672;28;19960;-91
2022/04/03 16:16:03;;;;;;;;;;;;;;;;;;5082325;28;20010;-89
2022/04/03 16:18:28;;;;;;;;;;;;;;;;;;5079209;28;19916;-91
2022/04/03 16:20:54;;;;;;;;;;;;;;;;;;5087098;28;19998;-90
2022/04/03 16:23:19;;;;;;;;;;;;;;;;;;5096984;28;19991;-90
2022/04/03 16:25:44;;;;;;;;;;;;;;;;;;5078077;28;19958;-90
2022/04/03 16:28:13;;;;;;;;;;;;;;;;;;5057632;28;19912;-88
2022/04/03 16:30:38;;;;;;;;;;;;;;;;;;5097735;28;19954;-89
2022/04/03 16:33:03;;;;;;;;;;;;;;;;;;5078143;28;19912;-86
2022/04/03 16:35:28;;;;;;;;;;;;;;;;;;5102277;28;19912;-86